createdAt,value
2023-03-24T00:01:05.267Z,87.18
2023-03-24T00:03:34.199Z,83.25
2023-03-24T00:06:03.946Z,88.30
2023-03-24T00:08:36.523Z,96.05
2023-03-24T00:11:06.611Z,100.80
2023-03-24T00:13:38.476Z,99.60
2023-03-24T00:16:08.301Z,103.25
2023-03-24T00:18:37.221Z,107.45
2023-03-24T00:21:05.980Z,113.28
2023-03-24T00:23:34.278Z,108.20
2023-03-24T00:26:03.737Z,111.00
2023-03-24T00:28:33.307Z,116.72
2023-03-24T00:31:03.344Z,118.45
2023-03-24T00:33:32.908Z,122.50
2023-03-24T00:36:01.595Z,121.78
2023-03-24T00:38:30.113Z,121.75
2023-03-24T00:40:58.974Z,116.88
2023-03-24T00:43:27.287Z,120.63
2023-03-24T00:46:01.403Z,121.60
2023-03-24T00:48:31.040Z,123.20
2023-03-24T00:50:59.301Z,124.00
2023-03-24T00:53:29.651Z,121.53
2023-03-24T00:55:58.420Z,124.38
2023-03-24T00:58:26.783Z,126.35
2023-03-24T01:00:56.687Z,128.10
2023-03-24T01:03:30.109Z,123.32
2023-03-24T01:06:04.521Z,126.40
2023-03-24T01:08:33.243Z,124.35
2023-03-24T01:11:01.613Z,125.10
2023-03-24T01:13:30.618Z,129.80
2023-03-24T01:15:58.851Z,125.88
2023-03-24T01:18:27.792Z,121.32
2023-03-24T01:20:55.982Z,123.50
2023-03-24T01:23:26.911Z,123.20
2023-03-24T01:25:55.228Z,117.47
2023-03-24T01:28:26.023Z,122.07
2023-03-24T01:30:54.336Z,121.97
2023-03-24T01:33:24.116Z,121.30
2023-03-24T01:35:52.670Z,121.82
2023-03-24T01:38:20.944Z,123.07
2023-03-24T01:40:50.511Z,123.22
2023-03-24T01:43:22.664Z,121.97
2023-03-24T01:45:58.482Z,120.82
2023-03-24T01:48:29.481Z,122.13
2023-03-24T01:51:01.396Z,116.70
2023-03-24T01:53:29.959Z,116.60
2023-03-24T01:55:59.639Z,119.30
2023-03-24T01:58:32.810Z,116.20
2023-03-24T02:01:17.682Z,118.38
2023-03-24T02:03:49.214Z,115.07
2023-03-24T02:06:27.885Z,114.53
2023-03-24T02:09:01.479Z,112.38
2023-03-24T02:11:32.737Z,112.75
2023-03-24T02:14:04.788Z,107.78
2023-03-24T02:17:04.136Z,105.88
2023-03-24T02:20:13.558Z,109.47
2023-03-24T02:23:21.097Z,108.32
2023-03-24T02:26:27.289Z,109.78
2023-03-24T02:29:03.671Z,103.35
2023-03-24T02:31:52.331Z,105.70
2023-03-24T02:34:50.060Z,103.30
2023-03-24T02:37:43.183Z,101.75
2023-03-24T02:40:36.620Z,103.18
2023-03-24T02:43:17.670Z,99.88
2023-03-24T02:45:50.510Z,98.13
2023-03-24T02:48:22.694Z,96.25
2023-03-24T02:50:53.085Z,93.70
2023-03-24T02:53:23.872Z,94.45
2023-03-24T02:56:24.458Z,97.65
2023-03-24T02:58:58.905Z,92.97
2023-03-24T03:01:31.817Z,92.00
2023-03-24T03:04:12.328Z,89.18
2023-03-24T03:06:41.540Z,86.57
2023-03-24T03:09:11.532Z,91.07
2023-03-24T03:11:44.872Z,87.35
2023-03-24T03:14:14.511Z,87.38
2023-03-24T03:16:45.467Z,83.97
2023-03-24T03:19:18.162Z,84.63
2023-03-24T03:21:47.681Z,85.05
2023-03-24T03:24:16.977Z,84.70
2023-03-24T03:26:47.528Z,82.68
2023-03-24T03:29:17.115Z,80.75
2023-03-24T03:31:50.993Z,79.45
2023-03-24T03:34:22.153Z,81.97
2023-03-24T03:36:52.138Z,79.28
2023-03-24T03:39:22.245Z,76.80
2023-03-24T03:41:51.983Z,79.20
2023-03-24T03:44:20.403Z,77.97
2023-03-24T03:46:48.809Z,73.28
2023-03-24T03:49:23.566Z,75.53
2023-03-24T03:51:51.832Z,70.05
2023-03-24T03:54:20.133Z,72.80
2023-03-24T03:56:49.726Z,73.90
2023-03-24T03:59:34.120Z,71.07
2023-03-24T04:02:09.066Z,69.63
2023-03-24T04:05:20.905Z,71.00
2023-03-24T04:08:08.417Z,73.53
2023-03-24T04:11:17.010Z,69.22
2023-03-24T04:14:31.194Z,67.40
2023-03-24T04:17:34.899Z,68.47
2023-03-24T04:20:10.669Z,65.75
2023-03-24T04:22:46.703Z,65.38
2023-03-24T04:25:22.812Z,67.57
2023-03-24T04:27:57.103Z,65.65
2023-03-24T04:30:27.283Z,65.20
2023-03-24T04:32:59.283Z,63.45
2023-03-24T04:35:32.779Z,63.90
2023-03-24T04:38:23.159Z,62.03
2023-03-24T04:40:58.816Z,62.03
2023-03-24T04:43:28.383Z,62.72
2023-03-24T04:45:58.044Z,61.38
2023-03-24T04:48:44.255Z,60.17
2023-03-24T04:51:21.129Z,60.80
2023-03-24T04:54:21.664Z,59.08
2023-03-24T04:56:54.540Z,58.03
2023-03-24T04:59:29.946Z,60.58
2023-03-24T05:01:58.988Z,58.22
2023-03-24T05:04:29.811Z,56.88
2023-03-24T05:07:03.906Z,55.05
2023-03-24T05:09:32.913Z,55.85
2023-03-24T05:12:02.237Z,56.28
2023-03-24T05:14:35.084Z,53.65
2023-03-24T05:17:05.474Z,57.00
2023-03-24T05:19:34.945Z,53.45
2023-03-24T05:22:03.048Z,53.63
2023-03-24T05:24:32.055Z,53.33
2023-03-24T05:27:00.324Z,55.40
2023-03-24T05:29:28.607Z,51.22
2023-03-24T05:31:57.888Z,51.17
2023-03-24T05:34:27.321Z,51.42
2023-03-24T05:37:12.206Z,50.28
2023-03-24T05:39:40.706Z,49.45
2023-03-24T05:42:29.171Z,50.17
2023-03-24T05:44:58.949Z,49.70
2023-03-24T05:47:28.689Z,46.90
2023-03-24T05:49:57.043Z,50.25
2023-03-24T05:52:28.888Z,48.40
2023-03-24T05:55:09.554Z,48.08
2023-03-24T05:57:37.905Z,47.80
2023-03-24T06:00:24.675Z,47.78
2023-03-24T06:02:59.247Z,45.03
2023-03-24T06:05:33.196Z,46.25
2023-03-24T06:08:04.037Z,46.25
2023-03-24T06:10:36.973Z,45.40
2023-03-24T06:13:08.676Z,44.38
2023-03-24T06:15:39.596Z,44.33
2023-03-24T06:18:32.067Z,43.13
2023-03-24T06:21:05.239Z,43.47
2023-03-24T06:23:35.909Z,43.22
2023-03-24T06:26:10.148Z,41.38
2023-03-24T06:28:44.095Z,40.95
2023-03-24T06:31:19.894Z,42.17
2023-03-24T06:33:48.269Z,41.38
2023-03-24T06:36:16.700Z,41.95
2023-03-24T06:38:46.808Z,41.08
2023-03-24T06:41:18.936Z,42.28
2023-03-24T06:43:49.946Z,39.78
2023-03-24T06:46:18.336Z,41.05
2023-03-24T06:48:49.267Z,39.10
2023-03-24T06:51:17.707Z,38.67
2023-03-24T06:53:48.219Z,38.05
2023-03-24T06:56:18.404Z,39.17
2023-03-24T06:58:52.501Z,38.20
2023-03-24T07:01:30.082Z,39.47
2023-03-24T07:04:26.072Z,38.80
2023-03-24T07:07:38.109Z,38.25
2023-03-24T07:10:28.530Z,39.05
2023-03-24T07:12:57.575Z,37.05
2023-03-24T07:15:25.805Z,35.17
2023-03-24T07:17:55.618Z,35.33
2023-03-24T07:20:42.735Z,34.83
2023-03-24T07:23:18.946Z,34.75
2023-03-24T07:25:55.452Z,35.20
2023-03-24T07:28:37.965Z,36.15
2023-03-24T07:31:06.910Z,35.20
2023-03-24T07:33:35.490Z,34.28
2023-03-24T07:36:04.076Z,34.17
2023-03-24T07:38:32.474Z,33.97
2023-03-24T07:41:06.813Z,35.40
2023-03-24T07:43:37.937Z,36.05
2023-03-24T07:46:18.501Z,36.28
2023-03-24T07:48:47.323Z,34.40
2023-03-24T07:51:19.922Z,33.22
2023-03-24T07:53:48.270Z,33.75
2023-03-24T07:56:27.335Z,32.20
2023-03-24T07:58:58.513Z,35.72
2023-03-24T08:01:33.078Z,33.90
2023-03-24T08:04:04.802Z,33.25
2023-03-24T08:07:08.936Z,38.33
2023-03-24T08:09:37.118Z,33.78
2023-03-24T08:12:17.489Z,36.80
2023-03-24T08:14:48.387Z,38.20
2023-03-24T08:17:16.434Z,37.08
2023-03-24T08:19:58.262Z,39.55
2023-03-24T08:22:28.556Z,43.00
2023-03-24T08:24:56.705Z,39.08
2023-03-24T08:27:26.207Z,42.70
2023-03-24T08:29:54.788Z,42.50
2023-03-24T08:32:23.011Z,42.28
2023-03-24T08:34:51.185Z,41.65
2023-03-24T08:37:19.367Z,43.22
2023-03-24T08:39:47.616Z,44.33
2023-03-24T08:42:15.843Z,45.25
2023-03-24T08:44:46.209Z,45.45
2023-03-24T08:47:14.341Z,43.30
2023-03-24T08:49:42.400Z,43.65
2023-03-24T08:52:10.507Z,44.13
2023-03-24T08:54:38.660Z,47.30
2023-03-24T08:57:07.575Z,47.92
2023-03-24T08:59:35.811Z,49.83
2023-03-24T09:02:05.291Z,47.35
2023-03-24T09:04:33.803Z,48.75
2023-03-24T09:07:03.064Z,48.58
2023-03-24T09:09:31.448Z,48.90
2023-03-24T09:11:59.566Z,52.15
2023-03-24T09:14:27.745Z,51.92
2023-03-24T09:16:56.255Z,50.53
2023-03-24T09:19:25.726Z,55.08
2023-03-24T09:21:53.827Z,53.60
2023-03-24T09:24:21.960Z,56.35
2023-03-24T09:26:50.043Z,59.90
2023-03-24T09:29:18.764Z,65.53
2023-03-24T09:31:47.144Z,61.80
2023-03-24T09:34:15.686Z,73.18
2023-03-24T09:36:45.173Z,71.38
2023-03-24T09:39:13.307Z,65.50
2023-03-24T09:41:41.513Z,62.47
2023-03-24T09:44:12.865Z,62.70
2023-03-24T09:46:43.980Z,62.78
2023-03-24T09:49:12.597Z,60.47
2023-03-24T09:51:42.066Z,61.00
2023-03-24T09:54:14.019Z,60.22
2023-03-24T09:56:43.639Z,61.17
2023-03-24T09:59:15.191Z,63.38
2023-03-24T10:01:43.348Z,63.58
2023-03-24T10:04:15.712Z,62.33
2023-03-24T10:06:44.078Z,60.40
2023-03-24T10:09:23.579Z,59.08
2023-03-24T10:11:56.724Z,58.70
2023-03-24T10:14:29.212Z,59.25
2023-03-24T10:16:59.280Z,57.55
2023-03-24T10:19:33.893Z,56.70
2023-03-24T10:22:04.421Z,54.60
2023-03-24T10:24:38.313Z,58.47
2023-03-24T10:27:08.332Z,54.58
2023-03-24T10:29:36.723Z,55.75
2023-03-24T10:32:10.810Z,54.22
2023-03-24T10:34:38.968Z,55.67
2023-03-24T10:37:07.470Z,50.22
2023-03-24T10:39:44.200Z,50.88
2023-03-24T10:42:15.967Z,49.47
2023-03-24T10:44:44.146Z,49.63
2023-03-24T10:47:12.636Z,47.63
2023-03-24T10:49:40.886Z,48.97
2023-03-24T10:52:10.983Z,52.20
2023-03-24T10:54:40.892Z,53.17
2023-03-24T10:57:16.559Z,55.15
2023-03-24T10:59:51.847Z,51.20
2023-03-24T11:02:21.504Z,47.65
2023-03-24T11:04:51.995Z,47.58
2023-03-24T11:07:21.207Z,53.60
2023-03-24T11:09:59.234Z,47.17
2023-03-24T11:12:28.340Z,45.97
2023-03-24T11:15:17.528Z,41.05
2023-03-24T11:17:49.637Z,45.05
2023-03-24T11:20:19.248Z,44.33
2023-03-24T11:23:01.314Z,48.40
2023-03-24T11:25:33.799Z,48.15
2023-03-24T11:28:03.468Z,62.65
2023-03-24T11:30:34.778Z,61.83
2023-03-24T11:33:04.007Z,56.30
2023-03-24T11:35:41.372Z,58.60
2023-03-24T11:38:10.193Z,58.85
2023-03-24T11:40:39.742Z,60.20
2023-03-24T11:43:12.994Z,57.67
2023-03-24T11:45:41.856Z,58.25
2023-03-24T11:48:15.609Z,55.20
2023-03-24T11:50:43.851Z,55.83
2023-03-24T11:53:13.335Z,54.13
2023-03-24T11:55:47.150Z,51.60
2023-03-24T11:58:19.691Z,51.97
2023-03-24T12:00:49.484Z,50.42
2023-03-24T12:03:44.747Z,54.03
2023-03-24T12:06:19.245Z,52.00
2023-03-24T12:08:52.894Z,53.22
2023-03-24T12:11:24.649Z,50.13
2023-03-24T12:13:52.874Z,47.58
2023-03-24T12:16:39.230Z,47.88
2023-03-24T12:19:40.284Z,46.10
2023-03-24T12:22:14.699Z,46.25
2023-03-24T12:24:54.572Z,48.10
2023-03-24T12:27:27.587Z,53.20
2023-03-24T12:30:01.857Z,76.45
2023-03-24T12:32:38.090Z,70.32
2023-03-24T12:35:39.831Z,68.60
2023-03-24T12:38:27.128Z,63.70
2023-03-24T12:41:39.450Z,64.18
2023-03-24T12:44:33.884Z,60.17
2023-03-24T12:47:06.523Z,57.28
2023-03-24T12:49:47.144Z,39.53
2023-03-24T12:52:32.265Z,44.58
2023-03-24T12:55:05.189Z,42.78
2023-03-24T12:57:35.838Z,36.38
2023-03-24T13:00:11.077Z,48.78
2023-03-24T13:02:40.450Z,44.97
2023-03-24T13:05:10.369Z,41.88
2023-03-24T13:07:39.362Z,35.13
2023-03-24T13:10:09.434Z,38.33
2023-03-24T13:12:39.456Z,33.15
2023-03-24T13:15:16.389Z,34.38
2023-03-24T13:17:46.974Z,33.30
2023-03-24T13:20:16.336Z,36.90
2023-03-24T13:22:44.464Z,33.72
2023-03-24T13:25:19.287Z,33.13
2023-03-24T13:27:47.475Z,35.33
2023-03-24T13:30:35.377Z,34.00
2023-03-24T13:33:06.115Z,33.80
2023-03-24T13:35:51.494Z,31.23
2023-03-24T13:38:22.087Z,30.02
2023-03-24T13:40:52.361Z,27.13
2023-03-24T13:43:21.697Z,29.50
2023-03-24T13:45:52.157Z,29.77
2023-03-24T13:48:27.724Z,33.72
2023-03-24T13:50:58.155Z,30.35
2023-03-24T13:53:32.724Z,30.30
2023-03-24T13:56:01.814Z,29.13
2023-03-24T13:58:47.073Z,25.20
2023-03-24T14:01:34.025Z,27.00
2023-03-24T14:04:23.649Z,24.63
2023-03-24T14:06:52.029Z,23.30
2023-03-24T14:09:22.446Z,23.00
2023-03-24T14:11:52.028Z,25.23
2023-03-24T14:14:22.347Z,21.80
2023-03-24T14:17:04.144Z,21.77
2023-03-24T14:19:33.587Z,22.63
2023-03-24T14:22:15.062Z,24.13
2023-03-24T14:24:44.612Z,20.08
2023-03-24T14:27:35.971Z,20.90
2023-03-24T14:30:07.561Z,19.70
2023-03-24T14:32:40.680Z,19.77
2023-03-24T14:35:24.163Z,22.30
2023-03-24T14:37:54.290Z,17.20
2023-03-24T14:40:32.199Z,19.90
2023-03-24T14:43:20.381Z,20.35
2023-03-24T14:46:01.594Z,17.67
2023-03-24T14:48:43.131Z,18.95
2023-03-24T14:51:25.258Z,16.05
2023-03-24T14:53:53.629Z,20.38
2023-03-24T14:56:21.825Z,18.85
2023-03-24T14:58:51.839Z,17.13
2023-03-24T15:01:20.419Z,16.38
2023-03-24T15:03:55.233Z,17.35
2023-03-24T15:06:24.189Z,16.10
2023-03-24T15:08:53.591Z,18.42
2023-03-24T15:11:23.143Z,16.73
2023-03-24T15:13:52.139Z,16.13
2023-03-24T15:16:25.026Z,14.88
2023-03-24T15:19:01.350Z,15.35
2023-03-24T15:21:33.804Z,14.52
2023-03-24T15:24:02.172Z,14.82
2023-03-24T15:26:30.646Z,15.57
2023-03-24T15:28:59.545Z,14.80
2023-03-24T15:31:30.527Z,14.43
2023-03-24T15:34:25.122Z,14.15
2023-03-24T15:36:54.931Z,13.68
2023-03-24T15:39:26.774Z,14.23
2023-03-24T15:41:55.161Z,13.82
2023-03-24T15:44:26.240Z,13.70
2023-03-24T15:46:56.681Z,13.30
2023-03-24T15:49:27.987Z,14.32
2023-03-24T15:51:58.373Z,12.32
2023-03-24T15:54:27.047Z,13.00
2023-03-24T15:57:03.085Z,12.90
2023-03-24T15:59:35.984Z,12.70
2023-03-24T16:02:05.660Z,14.15
2023-03-24T16:04:35.741Z,16.38
2023-03-24T16:07:04.876Z,50.33
2023-03-24T16:09:39.026Z,51.67
2023-03-24T16:12:11.425Z,57.30
2023-03-24T16:14:40.098Z,44.97
2023-03-24T16:17:08.369Z,46.22
2023-03-24T16:19:37.955Z,40.55
2023-03-24T16:22:10.492Z,43.08
2023-03-24T16:24:38.592Z,42.20
2023-03-24T16:27:06.820Z,41.95
2023-03-24T16:29:38.222Z,37.95
2023-03-24T16:32:07.208Z,36.42
2023-03-24T16:34:36.746Z,36.72
2023-03-24T16:37:06.394Z,34.88
2023-03-24T16:39:34.463Z,33.10
2023-03-24T16:42:02.662Z,32.72
2023-03-24T16:44:31.081Z,35.03
2023-03-24T16:46:59.337Z,30.80
2023-03-24T16:49:27.553Z,39.78
2023-03-24T16:51:55.936Z,53.05
2023-03-24T16:54:25.444Z,69.90
2023-03-24T16:56:53.609Z,60.28
2023-03-24T16:59:21.916Z,67.97
2023-03-24T17:01:50.055Z,86.50
2023-03-24T17:04:19.397Z,70.45
2023-03-24T17:06:49.349Z,64.90
2023-03-24T17:09:17.648Z,71.85
2023-03-24T17:11:48.745Z,64.80
2023-03-24T17:14:17.067Z,62.03
2023-03-24T17:16:45.924Z,61.97
2023-03-24T17:19:15.459Z,57.97
2023-03-24T17:21:46.028Z,58.35
2023-03-24T17:24:14.350Z,55.05
2023-03-24T17:26:42.802Z,56.42
2023-03-24T17:29:12.565Z,63.42
2023-03-24T17:31:43.116Z,56.85
2023-03-24T17:34:21.588Z,55.65
2023-03-24T17:36:51.369Z,59.42
2023-03-24T17:39:20.025Z,75.97
2023-03-24T17:41:48.287Z,67.70
2023-03-24T17:44:17.868Z,61.60
2023-03-24T17:46:46.116Z,67.75
2023-03-24T17:49:14.347Z,65.15
2023-03-24T17:51:42.469Z,62.50
2023-03-24T17:54:11.900Z,66.13
2023-03-24T17:56:40.263Z,60.90
2023-03-24T17:59:08.439Z,58.20
2023-03-24T18:01:39.537Z,69.30
2023-03-24T18:04:07.946Z,62.95
2023-03-24T18:06:36.076Z,68.93
2023-03-24T18:09:04.405Z,64.32
2023-03-24T18:11:32.635Z,61.60
2023-03-24T18:14:00.867Z,69.82
2023-03-24T18:16:30.898Z,71.63
2023-03-24T18:19:01.550Z,78.93
2023-03-24T18:21:29.768Z,76.93
2023-03-24T18:23:57.859Z,76.47
2023-03-24T18:26:26.624Z,84.57
2023-03-24T18:28:54.714Z,74.53
2023-03-24T18:31:25.891Z,76.45
2023-03-24T18:33:54.163Z,70.72
2023-03-24T18:36:26.602Z,77.43
2023-03-24T18:38:57.450Z,74.32
2023-03-24T18:41:26.956Z,70.80
2023-03-24T18:43:55.279Z,71.05
2023-03-24T18:46:23.570Z,78.00
2023-03-24T18:48:53.205Z,78.05
2023-03-24T18:51:21.548Z,75.88
2023-03-24T18:53:51.075Z,72.97
2023-03-24T18:56:19.325Z,74.78
2023-03-24T18:58:49.231Z,70.18
2023-03-24T19:01:22.531Z,73.65
2023-03-24T19:03:51.317Z,70.47
2023-03-24T19:06:19.600Z,72.15
2023-03-24T19:08:50.528Z,63.40
2023-03-24T19:11:20.138Z,51.58
2023-03-24T19:13:50.609Z,52.42
2023-03-24T19:16:19.028Z,48.97
2023-03-24T19:18:48.548Z,50.42
2023-03-24T19:21:16.984Z,50.10
2023-03-24T19:23:46.786Z,51.17
2023-03-24T19:26:16.278Z,52.22
2023-03-24T19:28:47.276Z,51.13
2023-03-24T19:31:17.701Z,49.80
2023-03-24T19:33:45.987Z,46.67
2023-03-24T19:36:15.397Z,47.47
2023-03-24T19:38:44.247Z,47.33
2023-03-24T19:41:13.479Z,48.92
2023-03-24T19:43:41.615Z,45.10
2023-03-24T19:46:11.244Z,48.47
2023-03-24T19:48:39.487Z,46.08
2023-03-24T19:51:07.643Z,47.63
2023-03-24T19:53:35.862Z,48.15
2023-03-24T19:56:04.220Z,47.42
2023-03-24T19:58:32.428Z,48.55
2023-03-24T20:01:00.601Z,47.88
2023-03-24T20:03:30.166Z,50.10
2023-03-24T20:05:58.708Z,46.45
2023-03-24T20:08:26.931Z,45.33
2023-03-24T20:10:55.435Z,46.85
2023-03-24T20:13:25.870Z,48.42
2023-03-24T20:15:54.201Z,51.25
2023-03-24T20:18:22.443Z,51.95
2023-03-24T20:20:52.093Z,50.00
2023-03-24T20:23:20.245Z,52.47
2023-03-24T20:25:48.779Z,51.35
2023-03-24T20:28:17.752Z,49.80
2023-03-24T20:30:46.203Z,50.60
2023-03-24T20:33:14.347Z,53.50
2023-03-24T20:35:42.757Z,49.70
2023-03-24T20:38:12.261Z,54.10
2023-03-24T20:40:40.415Z,51.30
2023-03-24T20:43:08.516Z,50.47
2023-03-24T20:45:37.122Z,51.47
2023-03-24T20:48:05.349Z,53.85
2023-03-24T20:50:33.699Z,51.40
2023-03-24T20:53:01.885Z,52.83
2023-03-24T20:55:31.668Z,51.95
2023-03-24T20:58:01.339Z,52.47
2023-03-24T21:00:29.852Z,53.05
2023-03-24T21:02:58.133Z,51.13
2023-03-24T21:05:26.374Z,52.85
2023-03-24T21:07:54.515Z,51.35
2023-03-24T21:10:22.601Z,50.38
2023-03-24T21:12:53.624Z,53.00
2023-03-24T21:15:24.966Z,51.72
2023-03-24T21:17:53.448Z,52.17
2023-03-24T21:20:21.746Z,51.42
2023-03-24T21:22:55.255Z,52.40
2023-03-24T21:25:24.072Z,51.65
2023-03-24T21:27:53.639Z,51.00
2023-03-24T21:30:21.999Z,53.40
2023-03-24T21:32:50.974Z,52.75
2023-03-24T21:35:19.779Z,51.92
2023-03-24T21:37:48.197Z,55.53
2023-03-24T21:40:18.515Z,52.33
2023-03-24T21:42:49.685Z,53.25
2023-03-24T21:45:20.410Z,51.17
2023-03-24T21:47:49.311Z,49.63
2023-03-24T21:50:23.053Z,51.85
2023-03-24T21:52:51.735Z,50.65
2023-03-24T21:55:20.514Z,53.42
2023-03-24T21:57:49.326Z,51.42
2023-03-24T22:00:21.124Z,49.97
2023-03-24T22:02:50.756Z,49.40
2023-03-24T22:05:20.118Z,50.10
2023-03-24T22:07:48.491Z,49.28
2023-03-24T22:10:23.061Z,50.05
2023-03-24T22:12:51.528Z,48.83
2023-03-24T22:15:21.081Z,48.35
2023-03-24T22:17:49.529Z,49.75
2023-03-24T22:20:17.928Z,46.95
2023-03-24T22:22:46.216Z,49.22
2023-03-24T22:25:15.487Z,49.13
2023-03-24T22:27:43.617Z,50.20
2023-03-24T22:30:13.284Z,48.65
2023-03-24T22:32:42.985Z,48.47
2023-03-24T22:35:11.357Z,47.60
2023-03-24T22:37:39.600Z,47.13
2023-03-24T22:40:09.306Z,46.38
2023-03-24T22:42:37.472Z,47.22
2023-03-24T22:45:06.402Z,47.20
2023-03-24T22:47:34.858Z,45.90
2023-03-24T22:50:04.447Z,45.47
2023-03-24T22:52:32.612Z,44.22
2023-03-24T22:55:01.142Z,48.38
2023-03-24T22:57:29.335Z,45.53
2023-03-24T23:00:01.796Z,44.00
2023-03-24T23:02:30.852Z,46.67
2023-03-24T23:04:59.211Z,43.40
2023-03-24T23:07:29.659Z,45.95
2023-03-24T23:09:59.474Z,46.15
2023-03-24T23:12:28.014Z,43.85
2023-03-24T23:14:56.279Z,44.92
2023-03-24T23:17:25.260Z,45.20
2023-03-24T23:19:53.510Z,42.60
2023-03-24T23:22:22.374Z,45.65
2023-03-24T23:25:00.557Z,41.95
2023-03-24T23:27:34.733Z,41.75
2023-03-24T23:30:03.012Z,41.65
2023-03-24T23:32:33.420Z,41.22
2023-03-24T23:35:02.950Z,41.80
2023-03-24T23:37:32.144Z,41.33
2023-03-24T23:40:08.277Z,41.35
2023-03-24T23:42:36.664Z,40.53
2023-03-24T23:45:05.017Z,39.15
2023-03-24T23:47:33.620Z,39.88
2023-03-24T23:50:01.843Z,39.38
2023-03-24T23:52:29.982Z,40.65
2023-03-24T23:54:58.586Z,40.10
2023-03-24T23:57:28.128Z,40.53
2023-03-24T23:59:56.296Z,40.40
